ADDS METAR Data INFO
IDs: Format: Raw Decoded Include TAF

Data at: 2037 UTC 16 Dec 2017

KBJI 162015Z AUTO 15007KT 10SM OVC012 M06/M08 A2990 RMK AO2 T10571082
KBJI 161955Z AUTO 13006KT 10SM OVC012 M06/M08 A2989 RMK AO2 T10581085
KBJI 161935Z AUTO 13004KT 10SM OVC010 M06/M08 A2988 RMK AO2 T10601085
KBJI 161915Z AUTO 13006KT 10SM OVC010 M06/M09 A2987 RMK AO2 T10611086
KBJI 161855Z AUTO 14007KT 10SM OVC012 M06/M09 A2987 RMK AO2 T10651088
KBJI 161835Z AUTO 15008KT 10SM OVC012 M07/M09 A2988 RMK AO2 T10661090
KBJI 161815Z AUTO 15009KT 10SM OVC012 M07/M09 A2987 RMK AO2 T10691091
KBJI 161755Z AUTO 14006KT 10SM OVC012 M07/M09 A2988 RMK AO2 T10721094 11072 21096
KBJI 161735Z AUTO 15005KT 10SM OVC012 M07/M09 A2988 RMK AO2 T10751095
KBJI 161715Z AUTO 14008KT 10SM OVC012 M08/M10 A2988 RMK AO2 T10771096
KBJI 161655Z AUTO 13007KT 10SM OVC012 M08/M10 A2987 RMK AO2 T10801097
KBJI 161635Z AUTO 12006KT 10SM OVC012 M08/M10 A2987 RMK AO2 T10821100
KBJI 161615Z AUTO 12008KT 10SM OVC012 M08/M10 A2986 RMK AO2 T10831100
KBJI 161555Z AUTO 12004KT 10SM OVC012 M08/M10 A2987 RMK AO2 T10851102
KBJI 161535Z AUTO 12006KT 10SM OVC012 M09/M10 A2985 RMK AO2 T10861102
KBJI 161515Z AUTO 12006KT 10SM OVC010 M09/M10 A2984 RMK AO2 T10881102
KBJI 161455Z AUTO 12006KT 5SM BR OVC010 M09/M10 A2983 RMK AO2 T10881102
KBJI 161435Z AUTO 13005KT 10SM OVC012 M09/M10 A2981 RMK AO2 T10891105
KBJI 161415Z AUTO 11004KT 10SM OVC012 M09/M11 A2980 RMK AO2 T10901108
KBJI 161355Z AUTO 09006KT 10SM OVC012 M09/M11 A2978 RMK AO2 T10901108
KBJI 161335Z AUTO 12007KT 10SM OVC014 M09/M11 A2975 RMK AO2 T10911110
KBJI 161315Z AUTO 11008KT 10SM OVC012 M09/M11 A2976 RMK AO2 T10921110
KBJI 161255Z AUTO 11006KT 10SM SCT012 OVC023 M09/M11 A2976 RMK AO2 T10931111
KBJI 161235Z AUTO 10006KT 10SM -SN OVC023 M09/M11 A2975 RMK AO2 T10951112
KBJI 161215Z AUTO 11006KT 7SM -SN OVC025 M10/M11 A2975 RMK AO2 T10961113
KBJI 161155Z AUTO 11006KT 4SM -SN OVC025 M10/M11 A2973 RMK AO2 T10961115 11090 21100
KBJI 161135Z AUTO 11008KT 5SM -SN SCT013 OVC025 M10/M11 A2973 RMK AO2 T10961115
KBJI 161115Z AUTO 10008KT 4SM -SN OVC013 M09/M11 A2972 RMK AO2 T10951113
KBJI 161055Z AUTO 10007KT 10SM -SN OVC013 M09/M11 A2972 RMK AO2 T10951112
KBJI 161035Z AUTO 10008KT 10SM OVC015 M09/M11 A2972 RMK AO2 T10931111
KBJI 161015Z AUTO 09007KT 10SM OVC017 M09/M11 A2972 RMK AO2 T10951111
KBJI 160955Z AUTO 09008KT 10SM OVC017 M09/M11 A2972 RMK AO2 T10951111
KBJI 160935Z AUTO 09007KT 10SM OVC017 M09/M11 A2973 RMK AO2 T10951111
KBJI 160915Z AUTO 09008KT 10SM OVC017 M09/M11 A2971 RMK AO2 T10951112
KBJI 160855Z AUTO 08010KT 10SM BKN019 OVC032 M09/M11 A2970 RMK AO2 T10951110
KBJI 160835Z AUTO 09007KT 10SM OVC032 M09/M11 A2971 RMK AO2 T10951110
KBJI 160815Z AUTO 09007KT 10SM BKN032 OVC041 M09/M11 A2969 RMK AO2 T10951110
KBJI 160755Z AUTO 09006KT 10SM SCT034 OVC041 M10/M11 A2968 RMK AO2 T10961110
KBJI 160735Z AUTO 09006KT 10SM BKN043 M10/M11 A2967 RMK AO2 T10981112
KBJI 160715Z AUTO 09007KT 10SM SCT047 M10/M11 A2967 RMK AO2 T11001113
KBJI 160655Z AUTO 10007KT 7SM -SN SCT047 M10/M11 A2966 RMK AO2 T10961110
KBJI 160635Z AUTO 10008KT 5SM -SN SCT026 M09/M11 A2965 RMK AO2 T10911106
KBJI 160615Z AUTO 09008KT 4SM -SN OVC024 M09/M10 A2966 RMK AO2 T10901105
KBJI 160555Z AUTO 10007KT 2 1/2SM -SN OVC022 M09/M10 A2965 RMK AO2 T10911105 11091 21100 410911140
KBJI 160535Z AUTO 09007KT 4SM -SN SCT020 BKN028 OVC032 M09/M10 A2966 RMK AO2 T10911105
KBJI 160515Z AUTO 10006KT 3SM -SN OVC020 M09/M10 A2966 RMK AO2 T10911105
KBJI 160455Z AUTO 10007KT 2 1/2SM -SN OVC020 M09/M11 A2965 RMK AO2 T10921106
KBJI 160435Z AUTO 10007KT 4SM -SN OVC024 M09/M11 A2965 RMK AO2 T10931107
KBJI 160415Z AUTO 10007KT 4SM -SN BKN022 OVC028 M09/M11 A2966 RMK AO2 T10951108
KBJI 160355Z AUTO 10007KT 2 1/2SM -SN OVC017 M09/M11 A2966 RMK AO2 T10951110
KBJI 160335Z AUTO 10007KT 1 3/4SM -SN OVC017 M10/M11 A2966 RMK AO2 T10961110
KBJI 160315Z AUTO 10007KT 1 3/4SM -SN OVC017 M10/M11 A2966 RMK AO2 T10961110
KBJI 160255Z AUTO 10006KT 2SM -SN OVC017 M10/M11 A2967 RMK AO2 T10961110
KBJI 160235Z AUTO 10006KT 3SM -SN OVC022 M10/M11 A2967 RMK AO2 T10971111
KBJI 160215Z AUTO 10006KT 2 1/2SM -SN OVC020 M10/M11 A2967 RMK AO2 T10981112
KBJI 160155Z AUTO 11005KT 3SM -SN OVC023 M10/M11 A2968 RMK AO2 T10981114
KBJI 160135Z AUTO 11005KT 2 1/2SM -SN BKN018 OVC023 M10/M11 A2968 RMK AO2 T11001115
KBJI 160115Z AUTO 11006KT 2 1/2SM -SN BKN020 OVC025 M10/M11 A2967 RMK AO2 T11001115
KBJI 160055Z AUTO 11005KT 2SM -SN OVC018 M10/M11 A2968 RMK AO2 T11001115
KBJI 160035Z AUTO 12005KT 1 1/2SM -SN OVC017 M10/M11 A2968 RMK AO2 T11001115
KBJI 160015Z AUTO 13006KT 2 1/2SM -SN BKN019 OVC025 M10/M12 A2968 RMK AO2 T11001117
KBJI 152355Z AUTO 12005KT 3SM -SN BKN017 OVC025 M10/M12 A2968 RMK AO2 T11001120 11098 21118
KBJI 152335Z AUTO 12006KT 4SM -SN OVC016 M10/M12 A2969 RMK AO2 T10991123
KBJI 152315Z AUTO 12006KT 10SM OVC016 M10/M12 A2968 RMK AO2 T10991124
KBJI 152255Z AUTO 11005KT 10SM OVC016 M10/M13 A2969 RMK AO2 T11001126
KBJI 152235Z AUTO 13006KT 10SM OVC016 M10/M13 A2969 RMK AO2 T11001126
KBJI 152215Z AUTO 15005KT 10SM OVC018 M10/M13 A2970 RMK AO2 T11001128
KBJI 152155Z AUTO 15005KT 10SM -SN OVC018 M10/M13 A2969 RMK AO2 T11001128
KBJI 152135Z AUTO 14004KT 10SM -SN OVC020 M10/M13 A2969 RMK AO2 T11001127
KBJI 152115Z AUTO 15005KT 10SM -SN OVC020 M10/M13 A2970 RMK AO2 T11011130
KBJI 152055Z AUTO 15005KT 7SM -SN OVC022 M10/M13 A2971 RMK AO2 T11011130
KBJI 152035Z AUTO 16003KT 7SM -SN OVC022 M10/M13 A2971 RMK AO2 T11021130
KBJI 152015Z AUTO 19004KT 10SM -SN OVC022 M10/M13 A2971 RMK AO2 T11041134
KBJI 151955Z AUTO 16006KT 10SM OVC026 M10/M13 A2972 RMK AO2 T11051135
KBJI 151935Z AUTO 14004KT 10SM -SN OVC028 M11/M13 A2973 RMK AO2 T11061135
KBJI 151915Z AUTO 13003KT 10SM -SN BKN030 OVC036 M11/M14 A2973 RMK AO2 T11081139
KBJI 151855Z AUTO 14003KT 10SM OVC034 M11/M14 A2974 RMK AO2 T11091140
KBJI 151835Z AUTO 00000KT 10SM OVC038 M11/M14 A2976 RMK AO2 T11121141
KBJI 151815Z AUTO 22003KT 10SM OVC038 M11/M14 A2977 RMK AO2 T11151145
KBJI 151755Z AUTO 21003KT 10SM BKN038 BKN043 BKN085 M12/M15 A2979 RMK AO2 T11191146 11119 21140
KBJI 151735Z AUTO 24003KT 10SM BKN085 M12/M15 A2980 RMK AO2 T11211149
KBJI 151715Z AUTO 00000KT 10SM OVC085 M12/M15 A2980 RMK AO2 T11241150
KBJI 151655Z AUTO 15003KT 10SM OVC085 M13/M15 A2981 RMK AO2 T11261151
KBJI 151635Z AUTO 00000KT 10SM -SN SCT010 SCT050 OVC085 M13/M15 A2982 RMK AO2 T11301153
KBJI 151615Z AUTO 00000KT 10SM -SN OVC010 M13/M15 A2983 RMK AO2 T11321155
KBJI 151555Z AUTO 00000KT 3SM -SN OVC010 M13/M15 A2982 RMK AO2 T11321155
KBJI 151535Z AUTO 00000KT 4SM -SN OVC010 M13/M15 A2981 RMK AO2 T11351155
KBJI 151515Z AUTO 00000KT 1 3/4SM -SN OVC010 M13/M15 A2981 RMK AO2 VIS 1V3 T11351155
KBJI 151455Z AUTO 00000KT 4SM -SN OVC010 M14/M16 A2982 RMK AO2 T11371156
KBJI 151435Z AUTO 00000KT 4SM -SN OVC010 M14/M16 A2983 RMK AO2 T11401160
KBJI 151415Z AUTO 31003KT 5SM -SN OVC012 M14/M16 A2983 RMK AO2 T11361156
KBJI 151355Z AUTO 27003KT 7SM -SN OVC012 M14/M16 A2983 RMK AO2 T11371156
KBJI 151335Z AUTO 00000KT 10SM -SN OVC012 M14/M16 A2984 RMK AO2 T11371156
KBJI 151315Z AUTO 00000KT 7SM -SN OVC012 M13/M15 A2985 RMK AO2 T11351155
KBJI 151255Z AUTO 00000KT 10SM OVC012 M13/M15 A2985 RMK AO2 T11351155
KBJI 151235Z AUTO 35003KT 10SM -SN OVC012 M13/M15 A2984 RMK AO2 T11331155
KBJI 151215Z AUTO 34003KT 10SM OVC012 M13/M15 A2985 RMK AO2 T11331155
KBJI 151155Z AUTO 00000KT 10SM OVC012 M13/M15 A2986 RMK AO2 T11341155 11100 21134
KBJI 151135Z AUTO 00000KT 10SM -SN OVC014 M13/M15 A2987 RMK AO2 T11321155
KBJI 151115Z AUTO 35003KT 10SM -SN OVC014 M13/M15 A2987 RMK AO2 T11331155
KBJI 151055Z AUTO 36003KT 10SM -SN OVC014 M13/M15 A2987 RMK AO2 T11331155
KBJI 151035Z AUTO 32004KT 10SM -SN OVC014 M13/M15 A2988 RMK AO2 T11311154
KBJI 151015Z AUTO 32007KT 4SM -SN OVC014 M13/M15 A2989 RMK AO2 T11271150
KBJI 150955Z AUTO 31008KT 10SM -SN OVC014 M12/M15 A2989 RMK AO2 T11251150
KBJI 150935Z AUTO 31009KT 10SM -SN OVC014 M12/M14 A2988 RMK AO2 T11211144
KBJI 150915Z AUTO 32009KT 7SM -SN OVC014 M11/M14 A2989 RMK AO2 T11151138
KBJI 150855Z AUTO 31010KT 10SM -SN OVC014 M11/M13 A2990 RMK AO2 T11101133